Current Weather

Baghdad Intl Airport

Baghdad Intl Airport, Iraq (ORBI)

Report from: Monday, July 22, 2024 11:00 AM UTC
Current time: Monday, July 22, 2024 11:57 AM UTC

Nearby weather – Weather history – Daily summaries
Weather forecast

Temperature45.0°C (113.0°F)
Heat index43.4°C (110.1°F)
Dew point10.0°C (50.0°F)
Winds 13 kts (6.7 m/s, 15 mph) Vrb
Winds variableWinds variable from West (270°) to North-Northwest (330°)
Clouds Sky clear
Altimeter29.44 in.Hg (997 mB)
Relative humidity13 %
Density altitude4,055 ft. (1,236 m)
Remarks Ceiling and visibility OK
No significant changes expected in the next two hours
Flight conditions Visual Meteorological Conditions
Raw dataORBI 221100Z 30013KT 270V330 CAVOK 45/10 Q0997 NOSIG
An error has occurred. This application may no longer respond until reloaded. Reload 🗙